sensor_id;sensor_type;location;lat;lon;timestamp;pressure;altitude;pressure_sealevel;temperature;humidity
59043;BME280;44826;51.596;5.624;2022-07-19T00:02:15;101723.53;;;20.61;64.76
59043;BME280;44826;51.596;5.624;2022-07-19T00:04:41;101726.25;;;20.60;63.86
59043;BME280;44826;51.596;5.624;2022-07-19T00:07:06;101724.56;;;20.59;62.48
59043;BME280;44826;51.596;5.624;2022-07-19T00:09:31;101721.22;;;20.55;64.15
59043;BME280;44826;51.596;5.624;2022-07-19T00:11:57;101726.53;;;20.55;62.59
59043;BME280;44826;51.596;5.624;2022-07-19T00:14:23;101717.88;;;20.52;61.83
59043;BME280;44826;51.596;5.624;2022-07-19T00:16:48;101711.13;;;20.46;62.06
59043;BME280;44826;51.596;5.624;2022-07-19T00:19:14;101721.19;;;20.39;62.52
59043;BME280;44826;51.596;5.624;2022-07-19T00:21:39;101722.38;;;20.34;63.65
59043;BME280;44826;51.596;5.624;2022-07-19T00:24:05;101718.84;;;20.33;62.06
59043;BME280;44826;51.596;5.624;2022-07-19T00:26:30;101715.47;;;20.31;62.22
59043;BME280;44826;51.596;5.624;2022-07-19T00:28:56;101714.69;;;20.29;62.33
59043;BME280;44826;51.596;5.624;2022-07-19T00:31:24;101714.84;;;20.26;62.59
59043;BME280;44826;51.596;5.624;2022-07-19T00:33:51;101711.44;;;20.24;62.57
59043;BME280;44826;51.596;5.624;2022-07-19T00:36:16;101703.91;;;20.16;64.48
59043;BME280;44826;51.596;5.624;2022-07-19T00:38:42;101706.97;;;20.08;64.18
59043;BME280;44826;51.596;5.624;2022-07-19T00:41:07;101701.06;;;20.03;64.26
59043;BME280;44826;51.596;5.624;2022-07-19T00:43:33;101704.03;;;19.97;65.68
59043;BME280;44826;51.596;5.624;2022-07-19T00:45:58;101708.53;;;19.95;65.67
59043;BME280;44826;51.596;5.624;2022-07-19T00:48:23;101709.63;;;19.91;65.10
59043;BME280;44826;51.596;5.624;2022-07-19T00:50:49;101704.50;;;19.88;63.76
59043;BME280;44826;51.596;5.624;2022-07-19T00:53:15;101701.91;;;19.86;62.93
59043;BME280;44826;51.596;5.624;2022-07-19T00:55:43;101708.38;;;19.80;63.40
59043;BME280;44826;51.596;5.624;2022-07-19T00:58:10;101698.88;;;19.76;65.11
59043;BME280;44826;51.596;5.624;2022-07-19T01:00:36;101692.03;;;19.72;65.76
59043;BME280;44826;51.596;5.624;2022-07-19T01:03:04;101694.84;;;19.69;66.03
59043;BME280;44826;51.596;5.624;2022-07-19T01:05:31;101695.91;;;19.65;66.59
59043;BME280;44826;51.596;5.624;2022-07-19T01:07:56;101690.81;;;19.62;66.51
59043;BME280;44826;51.596;5.624;2022-07-19T01:10:22;101692.69;;;19.60;66.56
59043;BME280;44826;51.596;5.624;2022-07-19T01:12:47;101688.47;;;19.55;66.74
59043;BME280;44826;51.596;5.624;2022-07-19T01:15:19;101689.50;;;19.53;65.92
59043;BME280;44826;51.596;5.624;2022-07-19T01:17:46;101691.34;;;19.51;65.32
59043;BME280;44826;51.596;5.624;2022-07-19T01:20:11;101693.13;;;19.50;64.55
59043;BME280;44826;51.596;5.624;2022-07-19T01:22:37;101694.97;;;19.48;64.32
59043;BME280;44826;51.596;5.624;2022-07-19T01:25:03;101702.16;;;19.46;63.91
59043;BME280;44826;51.596;5.624;2022-07-19T01:27:29;101690.81;;;19.44;64.33
59043;BME280;44826;51.596;5.624;2022-07-19T01:29:54;101690.09;;;19.40;64.20
59043;BME280;44826;51.596;5.624;2022-07-19T01:32:20;101694.53;;;19.40;63.93
59043;BME280;44826;51.596;5.624;2022-07-19T01:34:45;101692.13;;;19.35;63.12
59043;BME280;44826;51.596;5.624;2022-07-19T01:37:10;101694.81;;;19.34;63.39
59043;BME280;44826;51.596;5.624;2022-07-19T01:39:36;101699.31;;;19.32;64.49
59043;BME280;44826;51.596;5.624;2022-07-19T01:42:01;101695.03;;;19.29;65.45
59043;BME280;44826;51.596;5.624;2022-07-19T01:44:26;101691.63;;;19.27;64.63
59043;BME280;44826;51.596;5.624;2022-07-19T01:46:51;101697.00;;;19.25;65.16
59043;BME280;44826;51.596;5.624;2022-07-19T01:49:17;101698.84;;;19.23;65.21
59043;BME280;44826;51.596;5.624;2022-07-19T01:51:42;101696.34;;;19.20;65.54
59043;BME280;44826;51.596;5.624;2022-07-19T01:54:07;101699.00;;;19.20;65.23
59043;BME280;44826;51.596;5.624;2022-07-19T01:56:33;101689.50;;;19.16;65.28
59043;BME280;44826;51.596;5.624;2022-07-19T01:58:58;101689.66;;;19.13;66.04
59043;BME280;44826;51.596;5.624;2022-07-19T02:01:23;101688.03;;;19.10;65.86
59043;BME280;44826;51.596;5.624;2022-07-19T02:03:48;101685.47;;;19.09;66.07
59043;BME280;44826;51.596;5.624;2022-07-19T02:06:14;101688.16;;;19.07;66.03
59043;BME280;44826;51.596;5.624;2022-07-19T02:08:39;101692.75;;;19.04;66.27
59043;BME280;44826;51.596;5.624;2022-07-19T02:11:06;101688.63;;;18.98;66.36
59043;BME280;44826;51.596;5.624;2022-07-19T02:13:50;101685.41;;;18.91;67.39
59043;BME280;44826;51.596;5.624;2022-07-19T02:16:15;101685.53;;;18.88;67.74
59043;BME280;44826;51.596;5.624;2022-07-19T02:18:40;101683.03;;;18.85;67.34
59043;BME280;44826;51.596;5.624;2022-07-19T02:21:05;101683.97;;;18.84;68.91
59043;BME280;44826;51.596;5.624;2022-07-19T02:23:31;101676.19;;;18.81;68.55
59043;BME280;44826;51.596;5.624;2022-07-19T02:25:56;101680.63;;;18.80;68.55
59043;BME280;44826;51.596;5.624;2022-07-19T02:28:21;101670.13;;;18.79;67.65
59043;BME280;44826;51.596;5.624;2022-07-19T02:30:47;101665.75;;;18.79;66.60
59043;BME280;44826;51.596;5.624;2022-07-19T02:33:12;101673.66;;;18.79;65.67
59043;BME280;44826;51.596;5.624;2022-07-19T02:35:37;101668.47;;;18.78;66.16
59043;BME280;44826;51.596;5.624;2022-07-19T02:38:02;101663.38;;;18.73;67.77
59043;BME280;44826;51.596;5.624;2022-07-19T02:40:28;101671.38;;;18.72;67.09
59043;BME280;44826;51.596;5.624;2022-07-19T02:42:53;101671.50;;;18.69;68.03
59043;BME280;44826;51.596;5.624;2022-07-19T02:45:18;101671.59;;;18.67;67.85
59043;BME280;44826;51.596;5.624;2022-07-19T02:47:43;101669.00;;;18.65;66.56
59043;BME280;44826;51.596;5.624;2022-07-19T02:50:09;101661.09;;;18.65;65.82
59043;BME280;44826;51.596;5.624;2022-07-19T02:52:34;101662.94;;;18.63;66.11
59043;BME280;44826;51.596;5.624;2022-07-19T02:54:59;101665.66;;;18.62;68.21
59043;BME280;44826;51.596;5.624;2022-07-19T02:57:25;101663.97;;;18.61;65.80
59043;BME280;44826;51.596;5.624;2022-07-19T02:59:50;101665.91;;;18.57;67.72
59043;BME280;44826;51.596;5.624;2022-07-19T03:02:15;101661.69;;;18.53;68.37
59043;BME280;44826;51.596;5.624;2022-07-19T03:04:41;101664.47;;;18.50;67.95
59043;BME280;44826;51.596;5.624;2022-07-19T03:07:06;101658.53;;;18.45;68.08
59043;BME280;44826;51.596;5.624;2022-07-19T03:09:32;101659.53;;;18.42;67.69
59043;BME280;44826;51.596;5.624;2022-07-19T03:11:57;101659.50;;;18.44;66.85
59043;BME280;44826;51.596;5.624;2022-07-19T03:14:22;101659.50;;;18.44;66.44
59043;BME280;44826;51.596;5.624;2022-07-19T03:16:47;101655.28;;;18.40;66.46
59043;BME280;44826;51.596;5.624;2022-07-19T03:19:13;101646.59;;;18.38;67.81
59043;BME280;44826;51.596;5.624;2022-07-19T03:21:38;101646.72;;;18.34;67.06
59043;BME280;44826;51.596;5.624;2022-07-19T03:24:03;101647.72;;;18.32;68.03
59043;BME280;44826;51.596;5.624;2022-07-19T03:26:29;101642.66;;;18.27;67.90
59043;BME280;44826;51.596;5.624;2022-07-19T03:28:54;101646.38;;;18.23;67.09
59043;BME280;44826;51.596;5.624;2022-07-19T03:31:19;101650.06;;;18.19;68.09
59043;BME280;44826;51.596;5.624;2022-07-19T03:33:45;101642.28;;;18.16;68.89
59043;BME280;44826;51.596;5.624;2022-07-19T03:36:10;101639.72;;;18.14;69.71
59043;BME280;44826;51.596;5.624;2022-07-19T03:38:35;101642.41;;;18.13;69.54
59043;BME280;44826;51.596;5.624;2022-07-19T03:41:01;101640.69;;;18.12;70.08
59043;BME280;44826;51.596;5.624;2022-07-19T03:43:26;101638.16;;;18.10;68.41
59043;BME280;44826;51.596;5.624;2022-07-19T03:45:51;101645.13;;;18.11;67.73
59043;BME280;44826;51.596;5.624;2022-07-19T03:48:17;101644.34;;;18.09;67.67
59043;BME280;44826;51.596;5.624;2022-07-19T03:50:43;101633.88;;;18.08;67.43
59043;BME280;44826;51.596;5.624;2022-07-19T03:53:08;101643.56;;;18.07;67.58
59043;BME280;44826;51.596;5.624;2022-07-19T03:55:34;101642.84;;;18.03;67.66
59043;BME280;44826;51.596;5.624;2022-07-19T03:57:59;101649.94;;;18.01;67.69
59043;BME280;44826;51.596;5.624;2022-07-19T04:00:25;101653.50;;;18.00;67.38
59043;BME280;44826;51.596;5.624;2022-07-19T04:02:50;101640.34;;;18.00;67.52
59043;BME280;44826;51.596;5.624;2022-07-19T04:05:15;101652.59;;;18.01;67.38
59043;BME280;44826;51.596;5.624;2022-07-19T04:07:41;101651.78;;;17.99;67.22
59043;BME280;44826;51.596;5.624;2022-07-19T04:10:06;101656.22;;;17.99;69.03
59043;BME280;44826;51.596;5.624;2022-07-19T04:12:34;101651.78;;;17.99;67.89
59043;BME280;44826;51.596;5.624;2022-07-19T04:15:00;101652.66;;;18.00;67.75
59043;BME280;44826;51.596;5.624;2022-07-19T04:17:26;101657.06;;;17.99;67.97
59043;BME280;44826;51.596;5.624;2022-07-19T04:19:51;101653.41;;;18.02;67.73
59043;BME280;44826;51.596;5.624;2022-07-19T04:22:16;101657.75;;;18.03;67.89
59043;BME280;44826;51.596;5.624;2022-07-19T04:24:42;101648.94;;;18.04;68.38
59043;BME280;44826;51.596;5.624;2022-07-19T04:27:07;101651.75;;;18.01;69.50
59043;BME280;44826;51.596;5.624;2022-07-19T04:29:33;101650.03;;;18.00;69.21
59043;BME280;44826;51.596;5.624;2022-07-19T04:31:58;101653.50;;;18.00;69.06
59043;BME280;44826;51.596;5.624;2022-07-19T04:34:23;101655.22;;;18.01;68.30
59043;BME280;44826;51.596;5.624;2022-07-19T04:36:48;101651.66;;;18.02;68.31
59043;BME280;44826;51.596;5.624;2022-07-19T04:39:14;101647.09;;;18.06;68.23
59043;BME280;44826;51.596;5.624;2022-07-19T04:41:39;101644.34;;;18.09;69.28
59043;BME280;44826;51.596;5.624;2022-07-19T04:44:04;101645.97;;;18.12;68.85
59043;BME280;44826;51.596;5.624;2022-07-19T04:46:29;101646.84;;;18.12;68.91
59043;BME280;44826;51.596;5.624;2022-07-19T04:48:55;101647.63;;;18.14;69.74
59043;BME280;44826;51.596;5.624;2022-07-19T04:51:20;101645.72;;;18.18;68.17
59043;BME280;44826;51.596;5.624;2022-07-19T04:53:45;101652.56;;;18.22;68.53
59043;BME280;44826;51.596;5.624;2022-07-19T04:56:10;101643.72;;;18.23;68.90
59043;BME280;44826;51.596;5.624;2022-07-19T04:58:36;101646.22;;;18.26;69.15
59043;BME280;44826;51.596;5.624;2022-07-19T05:01:01;101646.00;;;18.31;69.43
59043;BME280;44826;51.596;5.624;2022-07-19T05:03:26;101647.59;;;18.35;69.19
59043;BME280;44826;51.596;5.624;2022-07-19T05:05:52;101643.88;;;18.39;70.17
59043;BME280;44826;51.596;5.624;2022-07-19T05:08:17;101648.94;;;18.44;69.72
59043;BME280;44826;51.596;5.624;2022-07-19T05:10:43;101644.25;;;18.50;70.36
59043;BME280;44826;51.596;5.624;2022-07-19T05:13:08;101649.28;;;18.55;69.47
59043;BME280;44826;51.596;5.624;2022-07-19T05:15:34;101648.06;;;18.62;68.51
59043;BME280;44826;51.596;5.624;2022-07-19T05:17:59;101646.94;;;18.68;68.60
59043;BME280;44826;51.596;5.624;2022-07-19T05:20:24;101642.28;;;18.73;68.02
59043;BME280;44826;51.596;5.624;2022-07-19T05:22:50;101653.41;;;18.80;70.62
59043;BME280;44826;51.596;5.624;2022-07-19T05:25:15;101653.19;;;18.85;68.99
59043;BME280;44826;51.596;5.624;2022-07-19T05:27:41;101651.03;;;18.93;68.57
59043;BME280;44826;51.596;5.624;2022-07-19T05:30:08;101653.41;;;18.99;69.16
59043;BME280;44826;51.596;5.624;2022-07-19T05:32:33;101650.41;;;19.07;68.96
59043;BME280;44826;51.596;5.624;2022-07-19T05:34:59;101651.78;;;19.14;69.32
59043;BME280;44826;51.596;5.624;2022-07-19T05:37:24;101657.56;;;19.22;68.68
59043;BME280;44826;51.596;5.624;2022-07-19T05:39:49;101654.63;;;19.29;68.84
59043;BME280;44826;51.596;5.624;2022-07-19T05:42:15;101659.44;;;19.38;66.94
59043;BME280;44826;51.596;5.624;2022-07-19T05:44:40;101653.00;;;19.44;67.59
59043;BME280;44826;51.596;5.624;2022-07-19T05:47:05;101658.66;;;19.53;66.04
59043;BME280;44826;51.596;5.624;2022-07-19T05:49:31;101661.78;;;19.62;65.26
59043;BME280;44826;51.596;5.624;2022-07-19T05:51:56;101652.53;;;19.70;64.61
59043;BME280;44826;51.596;5.624;2022-07-19T05:54:22;101647.69;;;19.79;63.35
59043;BME280;44826;51.596;5.624;2022-07-19T05:56:47;101658.50;;;19.92;63.83
59043;BME280;44826;51.596;5.624;2022-07-19T05:59:12;101660.59;;;20.02;63.25
59043;BME280;44826;51.596;5.624;2022-07-19T06:01:37;101655.75;;;20.11;64.33
59043;BME280;44826;51.596;5.624;2022-07-19T06:04:03;101657.91;;;20.20;62.31
59043;BME280;44826;51.596;5.624;2022-07-19T06:06:31;101653.94;;;20.29;63.43
59043;BME280;44826;51.596;5.624;2022-07-19T06:08:58;101655.22;;;20.38;63.46
59043;BME280;44826;51.596;5.624;2022-07-19T06:11:24;101655.72;;;20.44;63.75
59043;BME280;44826;51.596;5.624;2022-07-19T06:13:50;101656.25;;;20.51;64.19
59043;BME280;44826;51.596;5.624;2022-07-19T06:16:16;101656.75;;;20.58;62.40
59043;BME280;44826;51.596;5.624;2022-07-19T06:18:41;101662.38;;;20.68;63.15
59043;BME280;44826;51.596;5.624;2022-07-19T06:21:14;101668.19;;;20.74;63.02
59043;BME280;44826;51.596;5.624;2022-07-19T06:23:40;101667.03;;;20.80;63.67
59043;BME280;44826;51.596;5.624;2022-07-19T06:26:07;101665.81;;;20.86;63.30
59043;BME280;44826;51.596;5.624;2022-07-19T06:28:33;101674.25;;;20.92;63.19
59043;BME280;44826;51.596;5.624;2022-07-19T06:30:58;101664.28;;;20.98;63.29
59043;BME280;44826;51.596;5.624;2022-07-19T06:33:24;101671.78;;;21.05;62.80
59043;BME280;44826;51.596;5.624;2022-07-19T06:35:49;101668.78;;;21.12;61.62
59043;BME280;44826;51.596;5.624;2022-07-19T06:38:15;101671.81;;;21.20;61.90
59043;BME280;44826;51.596;5.624;2022-07-19T06:40:40;101666.97;;;21.28;61.26
59043;BME280;44826;51.596;5.624;2022-07-19T06:43:06;101666.63;;;21.34;60.49
59043;BME280;44826;51.596;5.624;2022-07-19T06:45:31;101658.22;;;21.42;60.84
59043;BME280;44826;51.596;5.624;2022-07-19T06:47:56;101657.78;;;21.50;60.28
59043;BME280;44826;51.596;5.624;2022-07-19T06:50:22;101655.50;;;21.58;59.65
59043;BME280;44826;51.596;5.624;2022-07-19T06:52:47;101661.25;;;21.66;59.79
59043;BME280;44826;51.596;5.624;2022-07-19T06:55:13;101660.69;;;21.76;61.00
59043;BME280;44826;51.596;5.624;2022-07-19T06:57:38;101661.84;;;21.86;59.90
59043;BME280;44826;51.596;5.624;2022-07-19T07:00:05;101654.44;;;21.91;58.35
59043;BME280;44826;51.596;5.624;2022-07-19T07:02:32;101655.78;;;21.98;58.50
59043;BME280;44826;51.596;5.624;2022-07-19T07:04:57;101649.06;;;22.07;58.32
59043;BME280;44826;51.596;5.624;2022-07-19T07:07:23;101648.19;;;22.21;57.03
59043;BME280;44826;51.596;5.624;2022-07-19T07:09:48;101651.69;;;22.36;56.84
59043;BME280;44826;51.596;5.624;2022-07-19T07:12:13;101654.28;;;22.52;56.21
59043;BME280;44826;51.596;5.624;2022-07-19T07:14:39;101648.16;;;22.65;56.89
59043;BME280;44826;51.596;5.624;2022-07-19T07:17:04;101652.69;;;22.77;56.78
59043;BME280;44826;51.596;5.624;2022-07-19T07:19:30;101640.31;;;22.91;56.57
59043;BME280;44826;51.596;5.624;2022-07-19T07:21:55;101644.91;;;23.01;56.37
59043;BME280;44826;51.596;5.624;2022-07-19T07:24:22;101648.75;;;23.10;55.33
59043;BME280;44826;51.596;5.624;2022-07-19T07:26:48;101646.47;;;23.18;55.72
59043;BME280;44826;51.596;5.624;2022-07-19T07:29:13;101654.78;;;23.27;55.67
59043;BME280;44826;51.596;5.624;2022-07-19T07:31:38;101647.38;;;23.32;54.26
59043;BME280;44826;51.596;5.624;2022-07-19T07:34:04;101650.34;;;23.40;54.32
59043;BME280;44826;51.596;5.624;2022-07-19T07:36:29;101648.88;;;23.49;53.04
59043;BME280;44826;51.596;5.624;2022-07-19T07:38:54;101650.03;;;23.58;54.01
59043;BME280;44826;51.596;5.624;2022-07-19T07:41:20;101646.88;;;23.65;54.46
59043;BME280;44826;51.596;5.624;2022-07-19T07:43:45;101648.28;;;23.71;53.52
59043;BME280;44826;51.596;5.624;2022-07-19T07:46:10;101643.38;;;23.78;54.87
59043;BME280;44826;51.596;5.624;2022-07-19T07:48:36;101635.09;;;23.83;54.04
59043;BME280;44826;51.596;5.624;2022-07-19T07:51:01;101634.56;;;23.90;54.00
59043;BME280;44826;51.596;5.624;2022-07-19T07:53:26;101634.03;;;23.98;52.73
59043;BME280;44826;51.596;5.624;2022-07-19T07:55:51;101631.91;;;24.03;54.81
59043;BME280;44826;51.596;5.624;2022-07-19T07:58:17;101631.59;;;24.08;54.70
59043;BME280;44826;51.596;5.624;2022-07-19T08:00:42;101633.16;;;24.10;54.19
59043;BME280;44826;51.596;5.624;2022-07-19T08:03:07;101629.97;;;24.18;53.80
59043;BME280;44826;51.596;5.624;2022-07-19T08:05:33;101620.25;;;24.30;51.53
59043;BME280;44826;51.596;5.624;2022-07-19T08:07:59;101621.94;;;24.44;50.49
59043;BME280;44826;51.596;5.624;2022-07-19T08:10:27;101622.84;;;24.56;50.52
59043;BME280;44826;51.596;5.624;2022-07-19T08:12:53;101623.03;;;24.66;53.33
59043;BME280;44826;51.596;5.624;2022-07-19T08:15:19;101624.28;;;24.73;52.04
59043;BME280;44826;51.596;5.624;2022-07-19T08:17:44;101626.38;;;24.81;52.44
59043;BME280;44826;51.596;5.624;2022-07-19T08:20:09;101620.41;;;24.90;52.23
59043;BME280;44826;51.596;5.624;2022-07-19T08:22:35;101618.72;;;25.00;52.71
59043;BME280;44826;51.596;5.624;2022-07-19T08:25:01;101613.69;;;25.09;52.81
59043;BME280;44826;51.596;5.624;2022-07-19T08:27:26;101612.84;;;25.20;52.37
59043;BME280;44826;51.596;5.624;2022-07-19T08:29:51;101616.63;;;25.28;51.94
59043;BME280;44826;51.596;5.624;2022-07-19T08:32:17;101616.69;;;25.40;51.95
59043;BME280;44826;51.596;5.624;2022-07-19T08:34:42;101611.63;;;25.48;52.20
59043;BME280;44826;51.596;5.624;2022-07-19T08:37:07;101618.91;;;25.57;51.01
59043;BME280;44826;51.596;5.624;2022-07-19T08:39:33;101611.16;;;25.66;51.23
59043;BME280;44826;51.596;5.624;2022-07-19T08:41:58;101607.06;;;25.73;50.98
59043;BME280;44826;51.596;5.624;2022-07-19T08:44:23;101610.22;;;25.78;51.88
59043;BME280;44826;51.596;5.624;2022-07-19T08:46:50;101610.69;;;25.83;49.46
59043;BME280;44826;51.596;5.624;2022-07-19T08:49:15;101608.16;;;25.93;49.28
59043;BME280;44826;51.596;5.624;2022-07-19T08:51:41;101604.78;;;26.02;49.63
59043;BME280;44826;51.596;5.624;2022-07-19T08:54:07;101605.00;;;26.11;48.52
59043;BME280;44826;51.596;5.624;2022-07-19T08:56:32;101598.00;;;26.21;49.54
59043;BME280;44826;51.596;5.624;2022-07-19T08:59:17;101597.47;;;26.27;47.32
59043;BME280;44826;51.596;5.624;2022-07-19T09:01:42;101595.06;;;26.35;45.84
59043;BME280;44826;51.596;5.624;2022-07-19T09:06:48;101603.50;;;26.52;48.92
59043;BME280;44826;51.596;5.624;2022-07-19T09:09:15;101600.91;;;26.62;48.05
59043;BME280;44826;51.596;5.624;2022-07-19T09:11:43;101601.38;;;26.67;45.07
59043;BME280;44826;51.596;5.624;2022-07-19T09:14:24;101590.66;;;26.78;45.74
59043;BME280;44826;51.596;5.624;2022-07-19T09:17:05;101589.44;;;26.83;47.13
59043;BME280;44826;51.596;5.624;2022-07-19T09:19:36;101590.88;;;26.87;47.88
59043;BME280;44826;51.596;5.624;2022-07-19T09:22:07;101581.66;;;26.91;47.06
59043;BME280;44826;51.596;5.624;2022-07-19T09:24:36;101581.16;;;26.97;45.60
59043;BME280;44826;51.596;5.624;2022-07-19T09:27:07;101577.09;;;27.03;45.05
59043;BME280;44826;51.596;5.624;2022-07-19T09:29:35;101585.19;;;27.13;44.17
59043;BME280;44826;51.596;5.624;2022-07-19T09:34:40;101579.38;;;27.29;41.90
59043;BME280;44826;51.596;5.624;2022-07-19T09:40:01;101570.78;;;27.46;44.63
59043;BME280;44826;51.596;5.624;2022-07-19T09:45:07;101569.03;;;27.56;42.82
59043;BME280;44826;51.596;5.624;2022-07-19T09:50:05;101570.03;;;27.65;41.13
59043;BME280;44826;51.596;5.624;2022-07-19T09:52:32;101568.50;;;27.72;43.38
59043;BME280;44826;51.596;5.624;2022-07-19T09:55:00;101574.03;;;27.81;42.30
59043;BME280;44826;51.596;5.624;2022-07-19T09:57:27;101578.56;;;27.90;39.84
59043;BME280;44826;51.596;5.624;2022-07-19T09:59:52;101566.34;;;27.97;40.35
59043;BME280;44826;51.596;5.624;2022-07-19T10:02:22;101572.13;;;28.02;41.54
59043;BME280;44826;51.596;5.624;2022-07-19T10:04:49;101569.66;;;28.11;42.29
59043;BME280;44826;51.596;5.624;2022-07-19T10:07:16;101573.59;;;28.16;39.25
59043;BME280;44826;51.596;5.624;2022-07-19T10:09:44;101568.53;;;28.23;38.47
59043;BME280;44826;51.596;5.624;2022-07-19T10:12:11;101564.75;;;28.26;39.13
59043;BME280;44826;51.596;5.624;2022-07-19T10:14:37;101565.75;;;28.35;39.71
59043;BME280;44826;51.596;5.624;2022-07-19T10:17:11;101557.03;;;28.42;40.74
59043;BME280;44826;51.596;5.624;2022-07-19T10:19:42;101558.16;;;28.50;40.34
59043;BME280;44826;51.596;5.624;2022-07-19T10:22:13;101556.03;;;28.53;38.02
59043;BME280;44826;51.596;5.624;2022-07-19T10:24:56;101555.91;;;28.65;40.83
59043;BME280;44826;51.596;5.624;2022-07-19T10:29:51;101556.31;;;28.89;37.18
59043;BME280;44826;51.596;5.624;2022-07-19T10:32:17;101549.13;;;29.00;37.62
59043;BME280;44826;51.596;5.624;2022-07-19T10:34:43;101545.88;;;29.06;39.00
59043;BME280;44826;51.596;5.624;2022-07-19T10:37:13;101538.94;;;29.13;35.74
59043;BME280;44826;51.596;5.624;2022-07-19T10:39:39;101542.31;;;29.25;35.46
59043;BME280;44826;51.596;5.624;2022-07-19T10:42:20;101543.13;;;29.35;36.27
59043;BME280;44826;51.596;5.624;2022-07-19T10:47:21;101536.63;;;29.38;35.89
59043;BME280;44826;51.596;5.624;2022-07-19T10:49:48;101526.63;;;29.40;36.81
59043;BME280;44826;51.596;5.624;2022-07-19T11:00:47;101521.78;;;29.53;36.01
59043;BME280;44826;51.596;5.624;2022-07-19T11:03:33;101524.72;;;29.60;35.37
59043;BME280;44826;51.596;5.624;2022-07-19T11:06:00;101518.91;;;29.65;35.29
59043;BME280;44826;51.596;5.624;2022-07-19T11:08:34;101513.78;;;29.72;36.04
59043;BME280;44826;51.596;5.624;2022-07-19T11:11:08;101515.53;;;29.81;36.26
59043;BME280;44826;51.596;5.624;2022-07-19T11:13:34;101513.78;;;29.90;38.06
59043;BME280;44826;51.596;5.624;2022-07-19T11:16:00;101511.81;;;29.92;37.26
59043;BME280;44826;51.596;5.624;2022-07-19T11:18:28;101499.81;;;29.96;36.26
59043;BME280;44826;51.596;5.624;2022-07-19T11:20:57;101501.50;;;29.97;37.93
59043;BME280;44826;51.596;5.624;2022-07-19T11:23:24;101501.50;;;29.97;35.88
59043;BME280;44826;51.596;5.624;2022-07-19T11:25:49;101498.84;;;29.97;34.55
59043;BME280;44826;51.596;5.624;2022-07-19T11:28:23;101494.69;;;30.03;37.73
59043;BME280;44826;51.596;5.624;2022-07-19T11:30:50;101494.22;;;30.07;34.04
59043;BME280;44826;51.596;5.624;2022-07-19T11:33:17;101486.56;;;30.12;34.79
59043;BME280;44826;51.596;5.624;2022-07-19T11:36:12;101489.66;;;30.18;35.71
59043;BME280;44826;51.596;5.624;2022-07-19T11:38:44;101490.72;;;30.25;33.54
59043;BME280;44826;51.596;5.624;2022-07-19T11:41:16;101481.22;;;30.31;33.56
59043;BME280;44826;51.596;5.624;2022-07-19T11:43:44;101470.53;;;30.39;31.07
59043;BME280;44826;51.596;5.624;2022-07-19T11:46:09;101470.13;;;30.52;32.83
59043;BME280;44826;51.596;5.624;2022-07-19T11:48:35;101474.75;;;30.60;30.36
59043;BME280;44826;51.596;5.624;2022-07-19T11:51:06;101473.44;;;30.64;30.03
59043;BME280;44826;51.596;5.624;2022-07-19T11:53:33;101464.41;;;30.65;31.57
59043;BME280;44826;51.596;5.624;2022-07-19T11:55:58;101468.00;;;30.73;29.85
59043;BME280;44826;51.596;5.624;2022-07-19T11:58:24;101470.72;;;30.82;29.64
59043;BME280;44826;51.596;5.624;2022-07-19T12:00:50;101459.66;;;30.85;28.56
59043;BME280;44826;51.596;5.624;2022-07-19T12:03:19;101462.47;;;30.83;28.19
59043;BME280;44826;51.596;5.624;2022-07-19T12:05:56;101463.34;;;30.84;30.01
59043;BME280;44826;51.596;5.624;2022-07-19T12:08:32;101455.66;;;30.89;30.59
59043;BME280;44826;51.596;5.624;2022-07-19T12:10:57;101455.16;;;30.94;29.63
59043;BME280;44826;51.596;5.624;2022-07-19T12:13:33;101457.53;;;30.97;30.21
59043;BME280;44826;51.596;5.624;2022-07-19T12:16:07;101447.63;;;30.97;30.96
59043;BME280;44826;51.596;5.624;2022-07-19T12:18:52;101444.81;;;31.07;30.82
59043;BME280;44826;51.596;5.624;2022-07-19T12:21:22;101442.50;;;31.12;29.29
59043;BME280;44826;51.596;5.624;2022-07-19T12:24:14;101436.66;;;31.17;30.28
59043;BME280;44826;51.596;5.624;2022-07-19T12:26:42;101437.03;;;31.22;29.05
59043;BME280;44826;51.596;5.624;2022-07-19T12:29:28;101439.22;;;31.27;30.34
59043;BME280;44826;51.596;5.624;2022-07-19T12:31:59;101435.03;;;31.32;29.76
59043;BME280;44826;51.596;5.624;2022-07-19T12:34:26;101432.41;;;31.41;28.41
59043;BME280;44826;51.596;5.624;2022-07-19T12:36:51;101433.09;;;31.51;29.09
59043;BME280;44826;51.596;5.624;2022-07-19T12:41:56;101426.38;;;31.63;29.47
59043;BME280;44826;51.596;5.624;2022-07-19T12:44:23;101421.22;;;31.70;27.35
59043;BME280;44826;51.596;5.624;2022-07-19T12:46:48;101413.34;;;31.77;27.59
59043;BME280;44826;51.596;5.624;2022-07-19T12:49:14;101415.38;;;31.83;27.51
59043;BME280;44826;51.596;5.624;2022-07-19T12:51:39;101420.09;;;31.89;26.39
59043;BME280;44826;51.596;5.624;2022-07-19T12:54:09;101418.41;;;31.97;26.85
59043;BME280;44826;51.596;5.624;2022-07-19T12:56:34;101417.91;;;32.01;27.75
59043;BME280;44826;51.596;5.624;2022-07-19T12:58:59;101412.69;;;32.00;26.99
59043;BME280;44826;51.596;5.624;2022-07-19T13:01:43;101401.25;;;31.98;27.14
59043;BME280;44826;51.596;5.624;2022-07-19T13:04:09;101401.25;;;32.06;26.31
59043;BME280;44826;51.596;5.624;2022-07-19T13:06:34;101401.06;;;32.07;26.63
59043;BME280;44826;51.596;5.624;2022-07-19T13:08:59;101397.22;;;32.10;28.14
59043;BME280;44826;51.596;5.624;2022-07-19T13:11:25;101401.59;;;32.11;26.24
59043;BME280;44826;51.596;5.624;2022-07-19T13:13:52;101400.22;;;32.15;26.56
59043;BME280;44826;51.596;5.624;2022-07-19T13:16:17;101397.22;;;32.18;25.44
59043;BME280;44826;51.596;5.624;2022-07-19T13:18:42;101387.47;;;32.26;26.27